Asheville Regional Airport
KAVL : now visible

Airfield :











YOU CAN JOIN US ON...

 
LOGIN :

Register | Disclaimer

   EN    FR    IT 

 









Legend :    VFR   Marginal VFR   IFR   Intensive IFR   Very Intensive IFR
Visi :
Ceiling :
>= 8 km
>= 3000ft
5 to 8 km
1000 to 3000 ft
1500m to 5 km
500 to 1000 ft
800 to 1500m
200 to 500 ft
< 800m
< 200 ft
Symbols :   Thunderstorms  Fog  Heavy snow  Heavy precipitations  Wind > 20 kt






- Airport Elevation : 2165 ft
- IATA code : AVL


KAVL - Asheville Regional

CURRENT METAR :
  • 250454Z AUTO 00000KT 5SM RA BR FEW060 OVC085 16/16 A3003 RMK AO2 SLP146 P0013 T01610161 402500122

EXPIRED METARs :
  • 250421Z AUTO 00000KT 4SM RA BR FEW007 BKN055 OVC070 16/16 A3003 RMK AO2 P0005 T01610156
  • 250354Z AUTO 22003KT 5SM RA BR FEW031 SCT040 OVC100 16/16 A3003 RMK AO2 SLP149 P0006 T01610156
  • 250331Z AUTO 00000KT 10SM -RA SCT020 SCT080 OVC100 16/16 A3003 RMK AO2 P0003 T01610161
  • 250254Z AUTO 00000KT 8SM -RA SCT080 OVC095 16/16 A3003 RMK AO2 RAB17 SLP149 P0001 60016 T01610156 51006

TAF KAVL
Valid from the 25 at 02:00 until the 26 at 00:00 UTC


250203Z 2502/2524 VRB05KT P6SM SCT025 BKN070
TEMPO 2502/2506 4SM -SHRA BR BKN025
FM250600 00000KT 5SM -RA BR OVC008
FM250900 18003KT 2SM RA BR OVC005
FM251400 10004KT 5SM BR OVC009
PROB30 2514/2520 4SM -SHRA BR OVC015
FM252000 15006KT P6SM BKN025
KZTL FIR / North America



MET'MAP, your aeronautical weather chart ! - Copyright ORBIFLY December 2007 - Disclaimer

ORBIFLY MET'MAP TEAM :

Programming & Development : Alexandra Zaïnal
Concept & original design : Baudouin d'Aumeries
Assistance for programming : Marc-Olivier Méhu
Technical & hardware support : Manuel Goepfert

Contact : metmap@orbifly.com




SOURCES & CREDITS :

   NOAA       Earth
Advisory